Terminal Aerodrome Forecast
Issued by NWS Omaha/Valley, NE

Home | Current Version | Previous Version | Text Only | Print | Product List | Glossary On
Versions: 1 2 3 4 5 6 7 8 9 10 11 12 13 14 15
000
FTUS43 KOAX 261407 AAA
TAFLNK
TAF AMD
KLNK 261407Z 2614/2712 35014G20KT P6SM SCT120
     FM261800 35008KT P6SM SCT200
     FM270800 06004KT P6SM BKN200=

USA.gov is the U.S. government's official web portal to all federal, state and local government web resources and services.